Detall de PIREP

Printer-friendly versionPDF version

[2012/01/20 08:20:00]
Flight IATA:CT0002
Pilot Number:042
Company ICAO:CAT
Aircraft Type:B738/F
PAX:100
Departing Airport: LFKJ
Destination Airport: LFLL
Alternate Airport:LSGG
Online: VATSIM
Route:TINOT Z154 MTG A6 CM A6 MTL
Flight Level:F300
No Slew and time accel
No pause
Crash detect
Detect pilot in Cockpit between each 30 and 45 minutes
08:20 Zero fuel Weight: 91661 Lbs, Fuel Weight: 45923 Lbs
08:20 VATSIM:LFKJ 200800Z 26010KT 9999 BKN023 BKN036 14/09 Q1022 TEMPO 8000 -RA
08:20 VATSIM:LFLL 200800Z 30006KT 7000 -RA SCT016 BKN033 07/06 Q1027 NOSIG
08:20 VOICE CATALONIAN
08:20 Parking Brakes off
08:24 Take-off
08:24 Take off Weight: 137031 Lbs
08:24 Wind: 260º @ 010 Knots Heading: 208º
08:24 POS N41º 54´ 55´´ E008º 47´ 48´´
08:24 Gear Up: 172 Knots
08:24 Flaps:4 at 172 Knots
08:24 Flaps:3 at 178 Knots
08:25 Flaps:2 at 178 Knots
08:25 Flaps:1 at 186 Knots
08:26 Flaps:0 at 242 Knots
08:39 Wind:265º@035 Knots Heading: 286º Ground Speed: 411 Knots Altitude 29730 ft
08:39 TOC
08:39 Fuel Weight: 42520 Lb
08:54 Wind:333º@062 Knots Heading: 295º Ground Speed: 392 Knots Altitude 30298 ft
09:08 TOD
09:08 Fuel Weight: 39607 Lb
09:09 Wind:310º@020 Knots Heading: 350º Ground Speed: 388 Knots Altitude 28270 ft
09:24 Wind:341º@017 Knots Heading: 050º Ground Speed: 238 Knots Altitude 6069 ft
09:24 Flaps:1 at 228 Knots
09:25 Flaps:2 at 225 Knots
09:25 Flaps:3 at 220 Knots
09:25 Gear Down: 212 Knots
09:25 Flaps:4 at 212 Knots
09:26 Flaps:5 at 155 Knots
09:27 Flaps:6 at 151 Knots
09:27 Flaps:7 at 145 Knots
09:27 Flaps:8 at 141 Knots
09:30 TouchDown:Rate -391 ft/min Speed: 130 Knots
09:31 VATSIM:LFLL 200900Z 01004KT 9999 BKN033 07/06 Q1027 NOSIG
09:31 Land
09:31 Wind:013º@004 Knots
09:31 Heading: 355º
09:31 Flight Duration: 01:07
09:31 Landing Weight: 130094 Lbs
09:31 POS N45º 43´ 24´´ E005º 05´ 20´´
09:35 Parking brakes on
09:35 Block to Block Duration: 01:15
09:35 Final Fuel: 38095 Lbls
09:35 Spent Fuel: 7828 Lbls
09:35 Flight Length: 279 NM
09:35 TOD Land Length: 97 NM

Exportar CSV

Powered by Drupal - Modified by Danger4k